Friday, July 20, 2018, 11:38 AM CDT
Back to Local

KLBL, Liberal, Liberal Municipal Airport

Location: Liberal, KS, United States Lat: 37.05
Local Time: 11:38 AM CDT (16:38 GMT) Lon: -100.967
Time Zone: US/Central Elev: 2883 ft

Show me the last for .
Show Decoded

2018-07-20 10:56 METAR KLBL 201556Z AUTO 22009KT 10SM CLR 32/16 A2995 RMK AO2 SLP102 T03170156 =
2018-07-20 09:56 METAR KLBL 201456Z AUTO 13006KT 10SM CLR 29/17 A2996 RMK AO2 SLP107 T02940167
                 50003 =
2018-07-20 08:56 METAR KLBL 201356Z AUTO 14005KT 10SM CLR 27/17 A2996 RMK AO2 SLP106 T02720172 =
2018-07-20 07:56 METAR KLBL 201256Z AUTO 00000KT 10SM CLR 23/16 A2995 RMK AO2 SLP105 T02280161 =
2018-07-20 06:56 METAR KLBL 201156Z AUTO 32003KT 10SM CLR 18/15 A2995 RMK AO2 SLP108 7////
                 T01830150 10239 20178 51004 =
2018-07-20 05:56 METAR KLBL 201056Z AUTO 30004KT 10SM CLR 18/15 A2994 RMK AO2 SLP104 T01830150 =
2018-07-20 04:56 METAR KLBL 200956Z AUTO 24005KT 10SM CLR 20/15 A2994 RMK AO2 SLP101 T02000150 =
2018-07-20 03:56 METAR KLBL 200856Z AUTO 00000KT 10SM CLR 21/15 A2993 RMK AO2 SLP094 T02060150
                 53001 =
2018-07-20 02:56 METAR KLBL 200756Z AUTO 00000KT 10SM CLR 22/14 A2993 RMK AO2 SLP093 T02220144 =
2018-07-20 01:56 METAR KLBL 200656Z AUTO 33003KT 10SM CLR 21/15 A2992 RMK AO2 SLP093 T02110150 =
2018-07-20 00:56 METAR KLBL 200556Z AUTO 26003KT 10SM CLR 23/14 A2993 RMK AO2 SLP096 T02280139
                 10339 20217 404060200 56003 =
2018-07-19 23:56 METAR KLBL 200456Z AUTO 32003KT 10SM CLR 22/14 A2993 RMK AO2 SLP099 T02220139 =
2018-07-19 22:56 METAR KLBL 200356Z AUTO 17005KT 10SM CLR 26/12 A2993 RMK AO2 SLP098 T02560122 =
2018-07-19 21:56 METAR KLBL 200256Z AUTO 15004KT 10SM CLR 26/12 A2994 RMK AO2 SLP102 T02610122
                 51021 =
2018-07-19 20:56 METAR KLBL 200156Z AUTO 17009KT 10SM CLR 30/12 A2991 RMK AO2 PK WND 18028/0126
                 SLP090 T03000117 =
2018-07-19 19:56 METAR KLBL 200056Z AUTO 21008KT 10SM CLR 33/12 A2992 RMK AO2 LTG DSNT N SLP093
                 T03280122 =
2018-07-19 18:56 METAR KLBL 192356Z AUTO 24008KT 10SM CLR 31/14 A2987 RMK AO2 WSHFT 2243 LTG DSNT
                 S SLP081 T03060144 10406 20306 58004 =
2018-07-19 18:03 METAR KLBL 192303Z AUTO 28011KT 10SM CLR 32/16 A2988 RMK AO2 WSHFT 2243 LTG DSNT
                 S AND SW =
2018-07-19 17:56 METAR KLBL 192256Z AUTO 28012KT 10SM CLR 32/16 A2989 RMK AO2 WSHFT 2239 LTG DSNT
                 S AND SW SLP083 T03220161 =
2018-07-19 16:56 METAR KLBL 192156Z AUTO 18007KT 10SM CLR 36/16 A2988 RMK AO2 LTG DSNT SW AND W
                 SLP078 T03560161 =
2018-07-19 15:56 METAR KLBL 192056Z AUTO 20010KT 10SM CLR 39/16 A2989 RMK AO2 LTG DSNT W SLP078
                 T03890161 56023 =
2018-07-19 14:56 METAR KLBL 191956Z AUTO 19009KT 10SM CLR 39/17 A2991 RMK AO2 SLP085 T03890172 =
2018-07-19 13:56 METAR KLBL 191856Z AUTO VRB05G14KT 10SM CLR 37/19 A2993 RMK AO2 SLP095 T03670189
                 =
2018-07-19 12:56 METAR KLBL 191756Z AUTO 00000KT 10SM CLR 34/19 A2996 RMK AO2 SLP106 6////
                 T03390194 10339 20200 =
2018-07-19 11:56 METAR KLBL 191656Z AUTO VRB03KT 10SM CLR 32/20 A2997 RMK AO2 SLP108 T03220200 =

Support USWX by starting your Amazon purchase here.